Time,TemperatureF,DewpointF,PressureIn,WindDirection,WindDirectionDegrees,WindSpeedMPH,WindSpeedGustMPH,Humidity,HourlyPrecipIn,Conditions,Clouds,dailyrainin,SoftwareType,DateUTC
2013-09-14 13:49:00,58.5,49.5,29.97,NNW,337,3.7,-999.0,72,-99.99,,,0.03,Acu-Link.com,2013-09-14 17:49:00,
2013-09-14 14:04:00,59.9,50.1,29.95,SW,225,2.7,-999.0,70,-99.99,,,0.03,Acu-Link.com,2013-09-14 18:04:00,
2013-09-14 14:19:00,60.1,50.3,29.96,NE,45,9.4,-999.0,70,-99.99,,,0.03,Acu-Link.com,2013-09-14 18:19:00,
2013-09-14 14:35:00,60.1,50.3,29.95,NNW,337,3.7,-999.0,70,-99.99,,,0.03,Acu-Link.com,2013-09-14 18:35:00,
2013-09-14 14:50:00,60.8,50.6,29.94,WNW,292,2.2,-999.0,69,-99.99,,,0.03,Acu-Link.com,2013-09-14 18:50:00,
2013-09-14 15:05:00,62.6,51.9,29.94,WSW,247,2.2,-999.0,68,-99.99,,,0.03,Acu-Link.com,2013-09-14 19:05:00,
2013-09-14 15:20:00,63.3,51.3,29.93,ESE,112,1.1,-999.0,65,-99.99,,,0.03,Acu-Link.com,2013-09-14 19:20:00,
2013-09-14 15:35:00,63.7,52.5,29.92,South,180,2.7,-999.0,67,-99.99,,,0.03,Acu-Link.com,2013-09-14 19:35:00,
2013-09-14 15:50:00,64.2,52.6,29.92,SSE,157,3.2,-999.0,66,-99.99,,,0.03,Acu-Link.com,2013-09-14 19:50:00,
2013-09-14 16:05:00,63.9,52.3,29.92,SSE,157,2.7,-999.0,66,-99.99,,,0.03,Acu-Link.com,2013-09-14 20:05:00,
2013-09-14 16:20:00,63.7,52.9,29.91,SSW,202,1.1,-999.0,68,-99.99,,,0.03,Acu-Link.com,2013-09-14 20:20:00,
2013-09-14 16:35:00,63.5,51.5,29.93,South,180,3.2,-999.0,65,-99.99,,,0.03,Acu-Link.com,2013-09-14 20:35:00,
2013-09-14 18:48:00,63.5,51.9,29.95,NNW,337,1.7,-999.0,66,-99.99,,,0.03,Acu-Link.com,2013-09-14 22:48:00,
2013-09-14 19:04:00,59.4,53.2,29.94,North,0,0.0,-999.0,80,-99.99,,,0.03,Acu-Link.com,2013-09-14 23:04:00,
2013-09-14 19:19:00,57.9,52.8,29.94,NNE,22,1.7,-999.0,83,-99.99,,,0.03,Acu-Link.com,2013-09-14 23:19:00,
2013-09-14 19:34:00,55.6,51.8,29.94,South,180,0.0,-999.0,87,-99.99,,,0.03,Acu-Link.com,2013-09-14 23:34:00,
2013-09-14 19:49:00,53.8,51.2,29.95,South,180,0.0,-999.0,91,-99.99,,,0.03,Acu-Link.com,2013-09-14 23:49:00,
2013-09-14 20:04:00,52.3,50.9,29.95,South,180,0.0,-999.0,95,-99.99,,,0.03,Acu-Link.com,2013-09-15 00:04:00,
2013-09-14 20:19:00,51.3,50.8,29.97,South,180,0.0,-999.0,98,-99.99,,,0.03,Acu-Link.com,2013-09-15 00:19:00,
2013-09-14 20:34:00,50.4,49.9,29.96,WNW,292,0.0,-999.0,98,-99.99,,,0.03,Acu-Link.com,2013-09-15 00:34:00,
2013-09-14 20:50:00,49.3,48.8,29.97,ESE,112,0.0,-999.0,98,-99.99,,,0.03,Acu-Link.com,2013-09-15 00:50:00,
2013-09-14 21:05:00,48.7,48.2,29.98,SSW,202,0.0,-999.0,98,-99.99,,,0.03,Acu-Link.com,2013-09-15 01:05:00,
2013-09-14 21:20:00,48.0,47.5,29.98,SW,225,0.0,-999.0,98,-99.99,,,0.03,Acu-Link.com,2013-09-15 01:20:00,
2013-09-14 21:35:00,47.8,47.3,29.99,WNW,292,0.0,-999.0,98,-99.99,,,0.03,Acu-Link.com,2013-09-15 01:35:00,
2013-09-14 22:25:00,46.0,45.5,30.01,South,180,0.0,-999.0,98,-99.99,,,0.03,Acu-Link.com,2013-09-15 02:25:00,
2013-09-14 22:40:00,45.7,45.2,30.02,South,180,0.0,-999.0,98,-99.99,,,0.03,Acu-Link.com,2013-09-15 02:40:00,
2013-09-14 23:06:00,45.7,45.2,30.03,SW,225,0.0,-999.0,98,-99.99,,,0.03,Acu-Link.com,2013-09-15 03:06:00,
2013-09-14 23:26:00,44.4,43.9,30.02,SW,225,0.0,-999.0,98,-99.99,,,0.03,Acu-Link.com,2013-09-15 03:26:00,
2013-09-14 23:52:00,44.1,43.6,30.03,SSE,157,0.0,-999.0,98,-99.99,,,0.03,Acu-Link.com,2013-09-15 03:52:00,